createdAt,value
2023-10-10T00:01:45.440Z,1.19
2023-10-10T00:04:14.377Z,1.17
2023-10-10T00:06:43.227Z,1.16
2023-10-10T00:09:12.994Z,1.15
2023-10-10T00:11:48.975Z,1.12
2023-10-10T00:14:19.613Z,1.15
2023-10-10T00:16:55.352Z,1.13
2023-10-10T00:19:30.971Z,1.12
2023-10-10T00:22:01.165Z,1.12
2023-10-10T00:24:33.114Z,1.10
2023-10-10T00:27:07.669Z,1.11
2023-10-10T00:29:38.163Z,1.12
2023-10-10T00:32:14.438Z,1.10
2023-10-10T00:34:44.558Z,1.10
2023-10-10T00:37:14.718Z,1.07
2023-10-10T00:39:48.958Z,1.06
2023-10-10T00:42:21.515Z,1.06
2023-10-10T00:44:50.971Z,1.05
2023-10-10T00:47:25.872Z,1.04
2023-10-10T00:49:55.477Z,1.04
2023-10-10T00:52:24.248Z,1.04
2023-10-10T00:54:53.990Z,1.05
2023-10-10T00:57:22.687Z,1.07
2023-10-10T00:59:56.052Z,1.12
2023-10-10T01:02:26.530Z,1.12
2023-10-10T01:04:58.497Z,1.11
2023-10-10T01:07:28.491Z,1.10
2023-10-10T01:10:08.605Z,1.09
2023-10-10T01:12:37.574Z,1.06
2023-10-10T01:15:10.045Z,1.02
2023-10-10T01:17:39.936Z,1.02
2023-10-10T01:20:19.632Z,1.05
2023-10-10T01:22:52.945Z,1.07
2023-10-10T01:25:42.959Z,1.05
2023-10-10T01:28:24.671Z,1.05
2023-10-10T01:31:00.427Z,1.04
2023-10-10T01:33:43.130Z,1.05
2023-10-10T01:36:14.390Z,1.01
2023-10-10T01:39:09.054Z,0.99
2023-10-10T01:41:40.743Z,1.00
2023-10-10T01:44:14.272Z,1.01
2023-10-10T01:46:43.307Z,0.99
2023-10-10T01:49:20.353Z,0.95
2023-10-10T01:51:52.200Z,0.94
2023-10-10T01:54:23.274Z,0.93
2023-10-10T01:56:53.454Z,0.92
2023-10-10T01:59:25.883Z,0.90
2023-10-10T02:01:56.774Z,0.88
2023-10-10T02:04:30.437Z,0.89
2023-10-10T02:07:05.561Z,0.89
2023-10-10T02:09:36.493Z,0.89
2023-10-10T02:12:13.616Z,0.88
2023-10-10T02:14:44.357Z,0.87
2023-10-10T02:17:24.043Z,0.87
2023-10-10T02:19:59.662Z,0.88
2023-10-10T02:22:52.765Z,0.86
2023-10-10T02:25:41.434Z,0.83
2023-10-10T02:28:21.622Z,0.81
2023-10-10T02:30:54.144Z,0.80
2023-10-10T02:33:32.379Z,0.78
2023-10-10T02:36:01.031Z,0.82
2023-10-10T02:38:34.597Z,0.82
2023-10-10T02:41:24.437Z,0.81
2023-10-10T02:44:05.614Z,0.82
2023-10-10T02:46:39.791Z,0.84
2023-10-10T02:49:23.257Z,0.81
2023-10-10T02:51:56.758Z,0.85
2023-10-10T02:54:35.108Z,0.89
2023-10-10T02:57:38.962Z,0.88
2023-10-10T03:00:28.846Z,0.86
2023-10-10T03:02:59.859Z,0.84
2023-10-10T03:05:41.914Z,0.78
2023-10-10T03:08:18.150Z,0.78
2023-10-10T03:10:54.968Z,0.76
2023-10-10T03:13:37.404Z,0.75
2023-10-10T03:16:29.292Z,0.77
2023-10-10T03:22:21.004Z,0.78
2023-10-10T03:25:09.472Z,0.78
2023-10-10T03:27:56.316Z,0.76
2023-10-10T03:30:36.155Z,0.75
2023-10-10T03:33:18.268Z,0.75
2023-10-10T03:36:01.151Z,0.74
2023-10-10T03:39:06.518Z,0.72
2023-10-10T03:41:48.652Z,0.73
2023-10-10T03:44:34.417Z,0.71
2023-10-10T03:47:19.982Z,0.71
2023-10-10T03:50:05.579Z,0.70
2023-10-10T03:52:51.134Z,0.69
2023-10-10T03:55:38.330Z,0.68
2023-10-10T03:58:23.933Z,0.66
2023-10-10T04:01:13.510Z,0.66
2023-10-10T04:03:58.956Z,0.67
2023-10-10T04:06:44.497Z,0.64
2023-10-10T04:09:30.010Z,0.67
2023-10-10T04:12:17.428Z,0.70
2023-10-10T04:15:03.494Z,0.71
2023-10-10T04:17:49.458Z,0.75
2023-10-10T04:20:35.389Z,0.80
2023-10-10T04:23:23.698Z,0.92
2023-10-10T04:26:06.095Z,1.05
2023-10-10T04:28:53.792Z,1.17
2023-10-10T04:31:39.933Z,1.25
2023-10-10T04:34:26.068Z,1.35
2023-10-10T04:37:16.979Z,1.46
2023-10-10T04:40:02.076Z,1.55
2023-10-10T04:42:48.914Z,1.72
2023-10-10T04:45:36.277Z,1.88
2023-10-10T04:48:22.490Z,2.02
2023-10-10T04:51:11.577Z,2.14
2023-10-10T04:53:56.985Z,2.25
2023-10-10T04:56:42.628Z,2.39
2023-10-10T04:59:28.548Z,2.54
2023-10-10T05:02:15.648Z,2.64
2023-10-10T05:05:01.327Z,2.74
2023-10-10T05:07:47.468Z,2.82
2023-10-10T05:10:32.760Z,2.96
2023-10-10T05:13:32.907Z,3.13
2023-10-10T05:16:22.264Z,3.25
2023-10-10T05:19:09.715Z,3.40
2023-10-10T05:21:55.428Z,3.58
2023-10-10T05:24:25.868Z,4.10
2023-10-10T05:26:57.757Z,4.71
2023-10-10T05:29:26.288Z,5.68
2023-10-10T05:31:57.629Z,7.17
2023-10-10T05:34:28.956Z,8.50
2023-10-10T05:36:57.543Z,9.39
2023-10-10T05:39:25.797Z,10.24
2023-10-10T05:41:55.996Z,11.11
2023-10-10T05:44:24.690Z,11.91
2023-10-10T05:46:54.042Z,12.57
2023-10-10T05:49:22.692Z,13.12
2023-10-10T05:51:53.516Z,13.52
2023-10-10T05:54:22.546Z,13.76
2023-10-10T05:56:50.932Z,13.80
2023-10-10T05:59:19.218Z,13.77
2023-10-10T06:01:47.603Z,13.53
2023-10-10T06:04:16.838Z,13.15
2023-10-10T06:06:47.440Z,12.49
2023-10-10T06:09:20.994Z,12.28
2023-10-10T06:11:51.048Z,12.46
2023-10-10T06:14:22.710Z,12.68
2023-10-10T06:16:51.382Z,12.87
2023-10-10T06:19:22.594Z,13.25
2023-10-10T06:21:53.740Z,13.60
2023-10-10T06:24:24.145Z,14.07
2023-10-10T06:26:52.451Z,14.64
2023-10-10T06:29:20.667Z,15.43
2023-10-10T06:31:50.528Z,15.96
2023-10-10T06:34:23.842Z,16.71
2023-10-10T06:36:53.907Z,17.52
2023-10-10T06:39:33.869Z,18.05
2023-10-10T06:42:05.177Z,18.63
2023-10-10T06:44:42.233Z,18.94
2023-10-10T06:47:13.756Z,19.00
2023-10-10T06:49:59.347Z,19.23
2023-10-10T06:52:29.833Z,19.43
2023-10-10T06:54:59.794Z,19.25
2023-10-10T06:57:45.588Z,18.69
2023-10-10T07:00:22.445Z,18.24
2023-10-10T07:02:53.818Z,18.26
2023-10-10T07:05:27.481Z,18.36
2023-10-10T07:07:59.583Z,18.94
2023-10-10T07:10:36.344Z,19.48
2023-10-10T07:13:11.646Z,19.47
2023-10-10T07:15:41.531Z,19.66
2023-10-10T07:18:15.491Z,19.80
2023-10-10T07:21:03.281Z,19.99
2023-10-10T07:23:38.636Z,19.52
2023-10-10T07:26:20.044Z,18.63
2023-10-10T07:28:54.609Z,18.67
2023-10-10T07:31:25.615Z,18.88
2023-10-10T07:34:05.171Z,19.26
2023-10-10T07:36:33.670Z,19.62
2023-10-10T07:39:16.127Z,19.47
2023-10-10T07:41:47.468Z,18.86
2023-10-10T07:44:21.222Z,18.41
2023-10-10T07:47:04.525Z,18.26
2023-10-10T07:49:32.843Z,18.44
2023-10-10T07:52:03.830Z,18.62
2023-10-10T07:54:40.830Z,17.79
2023-10-10T07:57:18.512Z,16.79
2023-10-10T07:59:47.845Z,16.05
2023-10-10T08:02:27.133Z,15.22
2023-10-10T08:04:56.244Z,14.47
2023-10-10T08:07:25.315Z,13.93
2023-10-10T08:10:14.687Z,13.29
2023-10-10T08:12:45.251Z,12.66
2023-10-10T08:15:21.713Z,12.47
2023-10-10T08:17:55.571Z,12.08
2023-10-10T08:20:58.448Z,11.71
2023-10-10T08:23:27.122Z,11.50
2023-10-10T08:25:55.631Z,11.32
2023-10-10T08:28:25.726Z,11.32
2023-10-10T08:30:55.059Z,11.34
2023-10-10T08:33:27.792Z,10.92
2023-10-10T08:35:56.519Z,10.67
2023-10-10T08:38:25.183Z,10.50
2023-10-10T08:40:59.308Z,10.37
2023-10-10T08:43:31.227Z,10.24
2023-10-10T08:46:05.213Z,10.18
2023-10-10T08:48:35.522Z,10.20
2023-10-10T08:51:06.768Z,10.11
2023-10-10T08:53:37.342Z,9.95
2023-10-10T08:56:08.295Z,9.90
2023-10-10T08:58:38.231Z,9.69
2023-10-10T09:01:09.719Z,9.52
2023-10-10T09:03:45.516Z,9.43
2023-10-10T09:06:18.636Z,9.24
2023-10-10T09:08:51.020Z,9.06
2023-10-10T09:11:21.707Z,9.00
2023-10-10T09:13:53.578Z,8.87
2023-10-10T09:16:42.420Z,8.66
2023-10-10T09:19:12.387Z,8.65
2023-10-10T09:21:52.433Z,8.68
2023-10-10T09:24:30.356Z,8.62
2023-10-10T09:27:00.528Z,8.59
2023-10-10T09:29:35.513Z,8.52
2023-10-10T09:32:06.779Z,8.42
2023-10-10T09:34:42.433Z,8.36
2023-10-10T09:37:15.327Z,8.28
2023-10-10T09:39:44.664Z,8.14
2023-10-10T09:42:30.381Z,8.15
2023-10-10T09:45:14.742Z,8.24
2023-10-10T09:47:56.854Z,8.22
2023-10-10T09:50:43.842Z,8.28
2023-10-10T09:53:24.317Z,8.28
2023-10-10T09:55:56.136Z,8.26
2023-10-10T09:58:29.582Z,8.25
2023-10-10T10:01:15.776Z,8.20
2023-10-10T10:03:56.423Z,8.16
2023-10-10T10:07:07.573Z,8.12
2023-10-10T10:09:56.829Z,8.12
2023-10-10T10:12:54.101Z,8.12
2023-10-10T10:15:50.046Z,8.09
2023-10-10T10:18:30.802Z,8.09
2023-10-10T10:21:18.248Z,8.00
2023-10-10T10:23:56.364Z,7.95
2023-10-10T10:26:36.361Z,7.92
2023-10-10T10:29:17.003Z,7.87
2023-10-10T10:31:58.476Z,7.87
2023-10-10T10:34:33.841Z,7.74
2023-10-10T10:37:08.613Z,7.68
2023-10-10T10:39:37.301Z,7.67
2023-10-10T10:42:13.645Z,7.70
2023-10-10T10:44:55.090Z,7.69
2023-10-10T10:47:47.410Z,7.64
2023-10-10T10:50:43.809Z,7.67
2023-10-10T10:53:36.335Z,7.67
2023-10-10T10:56:30.387Z,7.65
2023-10-10T10:59:13.990Z,7.64
2023-10-10T11:01:46.944Z,7.61
2023-10-10T11:04:26.641Z,7.61
2023-10-10T11:07:01.158Z,7.59
2023-10-10T11:09:35.301Z,7.58
2023-10-10T11:12:08.273Z,7.57
2023-10-10T11:14:46.320Z,7.55
2023-10-10T11:17:19.827Z,7.51
2023-10-10T11:19:49.825Z,7.49
2023-10-10T11:22:39.509Z,7.46
2023-10-10T11:25:12.796Z,7.48
2023-10-10T11:27:46.067Z,7.44
2023-10-10T11:30:20.859Z,7.44
2023-10-10T11:32:49.519Z,7.39
2023-10-10T11:35:27.414Z,7.38
2023-10-10T11:38:09.554Z,7.37
2023-10-10T11:40:38.429Z,7.35
2023-10-10T11:43:11.057Z,7.30
2023-10-10T11:45:42.691Z,7.30
2023-10-10T11:48:16.265Z,7.27
2023-10-10T11:50:47.015Z,7.23
2023-10-10T11:53:21.303Z,7.23
2023-10-10T11:55:50.212Z,7.23
2023-10-10T11:58:21.338Z,7.22
2023-10-10T12:01:01.036Z,7.17
2023-10-10T12:03:43.845Z,7.16
2023-10-10T12:06:18.747Z,7.16
2023-10-10T12:08:51.354Z,7.16
2023-10-10T12:11:23.260Z,7.13
2023-10-10T12:13:53.975Z,7.11
2023-10-10T12:16:25.605Z,7.11
2023-10-10T12:18:55.600Z,7.12
2023-10-10T12:21:25.430Z,7.10
2023-10-10T12:24:01.474Z,7.08
2023-10-10T12:26:32.307Z,7.08
2023-10-10T12:29:00.809Z,7.09
2023-10-10T12:31:29.396Z,7.08
2023-10-10T12:33:58.357Z,7.10
2023-10-10T12:36:30.797Z,7.07
2023-10-10T12:39:01.146Z,7.06
2023-10-10T12:41:36.603Z,7.04
2023-10-10T12:44:07.634Z,7.06
2023-10-10T12:46:36.424Z,7.03
2023-10-10T12:49:04.653Z,7.02
2023-10-10T12:51:32.948Z,7.04
2023-10-10T12:54:07.124Z,7.06
2023-10-10T12:56:39.922Z,7.05
2023-10-10T12:59:25.788Z,7.04
2023-10-10T13:01:57.856Z,7.02
2023-10-10T13:04:31.266Z,7.01
2023-10-10T13:07:04.744Z,6.98
2023-10-10T13:09:43.615Z,6.94
2023-10-10T13:12:19.741Z,6.92
2023-10-10T13:14:52.129Z,6.92
2023-10-10T13:17:33.042Z,6.88
2023-10-10T13:20:01.640Z,6.90
2023-10-10T13:22:30.943Z,6.87
2023-10-10T13:25:00.984Z,6.89
2023-10-10T13:27:29.333Z,6.89
2023-10-10T13:29:57.613Z,6.94
2023-10-10T13:32:26.187Z,6.98
2023-10-10T13:34:54.518Z,7.03
2023-10-10T13:37:23.432Z,7.08
2023-10-10T13:39:55.898Z,7.10
2023-10-10T13:42:25.852Z,7.14
2023-10-10T13:45:02.534Z,7.17
2023-10-10T13:47:32.124Z,7.22
2023-10-10T13:50:14.587Z,7.27
2023-10-10T13:52:43.051Z,7.32
2023-10-10T13:55:12.061Z,7.34
2023-10-10T13:57:41.793Z,7.34
2023-10-10T14:00:30.790Z,7.35
2023-10-10T14:03:05.394Z,7.29
2023-10-10T14:05:36.114Z,7.28
2023-10-10T14:08:07.599Z,7.26
2023-10-10T14:10:40.511Z,7.27
2023-10-10T14:13:21.183Z,7.28
2023-10-10T14:15:57.842Z,7.30
2023-10-10T14:18:28.859Z,7.31
2023-10-10T14:20:58.975Z,7.30
2023-10-10T14:23:28.575Z,7.26
2023-10-10T14:26:04.693Z,7.25
2023-10-10T14:28:35.157Z,7.17
2023-10-10T14:31:04.987Z,7.13
2023-10-10T14:33:33.708Z,7.09
2023-10-10T14:36:02.326Z,6.99
2023-10-10T14:38:33.151Z,6.94
2023-10-10T14:41:02.343Z,6.89
2023-10-10T14:43:34.226Z,6.86
2023-10-10T14:46:04.196Z,6.81
2023-10-10T14:48:34.915Z,6.75
2023-10-10T14:51:06.757Z,6.76
2023-10-10T14:53:36.133Z,6.74
2023-10-10T14:56:06.530Z,6.68
2023-10-10T14:58:37.149Z,6.64
2023-10-10T15:01:07.317Z,6.63
2023-10-10T15:03:42.400Z,6.57
2023-10-10T15:06:11.082Z,6.58
2023-10-10T15:08:44.580Z,6.57
2023-10-10T15:11:14.062Z,6.57
2023-10-10T15:13:42.977Z,6.54
2023-10-10T15:16:12.656Z,6.56
2023-10-10T15:18:43.559Z,6.55
2023-10-10T15:21:13.344Z,6.55
2023-10-10T15:23:44.385Z,6.56
2023-10-10T15:26:18.972Z,6.56
2023-10-10T15:28:47.647Z,6.60
2023-10-10T15:31:17.505Z,6.60
2023-10-10T15:33:46.100Z,6.57
2023-10-10T15:36:17.834Z,6.59
2023-10-10T15:38:46.492Z,6.60
2023-10-10T15:41:18.923Z,6.65
2023-10-10T15:43:49.184Z,6.65
2023-10-10T15:46:20.315Z,6.71
2023-10-10T15:48:50.687Z,6.76
2023-10-10T15:51:21.632Z,6.80
2023-10-10T15:53:50.510Z,6.84
2023-10-10T15:56:19.340Z,6.92
2023-10-10T15:58:51.862Z,6.99
2023-10-10T16:01:29.165Z,7.05
2023-10-10T16:04:01.528Z,7.12
2023-10-10T16:06:34.871Z,7.16
2023-10-10T16:09:09.420Z,7.19
2023-10-10T16:11:38.329Z,7.19
2023-10-10T16:14:12.473Z,7.21
2023-10-10T16:16:45.256Z,7.22
2023-10-10T16:19:15.036Z,7.25
2023-10-10T16:21:43.720Z,7.28
2023-10-10T16:24:15.786Z,7.32
2023-10-10T16:26:44.518Z,7.35
2023-10-10T16:29:13.737Z,7.36
2023-10-10T16:31:45.135Z,7.39
2023-10-10T16:34:18.011Z,7.43
2023-10-10T16:36:47.595Z,7.46
2023-10-10T16:39:16.247Z,7.49
2023-10-10T16:41:44.842Z,7.50
2023-10-10T16:44:15.783Z,7.50
2023-10-10T16:46:45.755Z,7.53
2023-10-10T16:49:16.293Z,7.52
2023-10-10T16:51:47.583Z,7.51
2023-10-10T16:54:15.965Z,7.50
2023-10-10T16:56:44.621Z,7.45
2023-10-10T16:59:13.511Z,7.46
2023-10-10T17:01:43.180Z,7.46
2023-10-10T17:04:13.203Z,7.44
2023-10-10T17:06:41.661Z,7.37
2023-10-10T17:09:11.535Z,7.37
2023-10-10T17:11:39.946Z,7.35
2023-10-10T17:14:08.342Z,7.31
2023-10-10T17:16:36.921Z,7.32
2023-10-10T17:19:17.045Z,7.31
2023-10-10T17:21:48.795Z,7.32
2023-10-10T17:24:20.106Z,7.32
2023-10-10T17:26:48.687Z,7.32
2023-10-10T17:29:17.373Z,7.30
2023-10-10T17:31:45.827Z,7.29
2023-10-10T17:34:17.097Z,7.27
2023-10-10T17:36:47.298Z,7.27
2023-10-10T17:39:17.429Z,7.25
2023-10-10T17:41:49.692Z,7.30
2023-10-10T17:44:19.407Z,7.44
2023-10-10T17:46:49.365Z,7.49
2023-10-10T17:49:18.165Z,7.50
2023-10-10T17:51:49.613Z,7.57
2023-10-10T17:54:18.288Z,7.69
2023-10-10T17:56:47.001Z,7.70
2023-10-10T17:59:18.065Z,7.76
2023-10-10T18:01:46.867Z,7.80
2023-10-10T18:04:16.439Z,7.87
2023-10-10T18:06:45.854Z,7.82
2023-10-10T18:09:18.403Z,7.86
2023-10-10T18:11:50.196Z,7.90
2023-10-10T18:14:19.772Z,7.97
2023-10-10T18:16:48.824Z,7.99
2023-10-10T18:19:19.514Z,8.04
2023-10-10T18:21:48.418Z,7.96
2023-10-10T18:24:18.211Z,7.97
2023-10-10T18:26:46.718Z,7.90
2023-10-10T18:29:16.971Z,7.83
2023-10-10T18:31:45.550Z,7.77
2023-10-10T18:34:14.760Z,7.74
2023-10-10T18:36:43.114Z,7.70
2023-10-10T18:39:15.225Z,7.70
2023-10-10T18:41:47.639Z,7.68
2023-10-10T18:44:17.369Z,7.68
2023-10-10T18:46:46.232Z,7.64
2023-10-10T18:49:16.307Z,7.59
2023-10-10T18:51:44.975Z,7.59
2023-10-10T18:54:14.038Z,7.50
2023-10-10T18:56:44.958Z,7.51
2023-10-10T18:59:14.505Z,7.46
2023-10-10T19:01:45.609Z,7.49
2023-10-10T19:04:19.886Z,7.47
2023-10-10T19:06:51.927Z,7.48
2023-10-10T19:09:24.405Z,7.43
2023-10-10T19:11:58.643Z,7.42
2023-10-10T19:14:34.966Z,7.39
2023-10-10T19:17:04.648Z,7.38
2023-10-10T19:19:33.809Z,7.37
2023-10-10T19:22:05.782Z,7.30
2023-10-10T19:24:39.877Z,7.29
2023-10-10T19:27:13.600Z,7.32
2023-10-10T19:29:42.803Z,7.29
2023-10-10T19:32:11.616Z,7.29
2023-10-10T19:34:40.069Z,7.29
2023-10-10T19:37:10.375Z,7.29
2023-10-10T19:39:39.712Z,7.23
2023-10-10T19:42:09.564Z,7.25
2023-10-10T19:44:38.227Z,7.24
2023-10-10T19:47:11.649Z,7.27
2023-10-10T19:49:40.333Z,7.24
2023-10-10T19:52:12.492Z,7.23
2023-10-10T19:54:41.026Z,7.25
2023-10-10T19:57:14.189Z,7.21
2023-10-10T19:59:42.831Z,7.23
2023-10-10T20:02:11.357Z,7.23
2023-10-10T20:04:40.185Z,7.21
2023-10-10T20:07:08.889Z,7.19
2023-10-10T20:09:37.651Z,7.21
2023-10-10T20:12:06.367Z,7.18
2023-10-10T20:14:36.347Z,7.16
2023-10-10T20:17:04.853Z,7.18
2023-10-10T20:19:33.259Z,7.19
2023-10-10T20:22:01.862Z,7.19
2023-10-10T20:24:30.304Z,7.18
2023-10-10T20:26:58.781Z,7.20
2023-10-10T20:29:27.367Z,7.19
2023-10-10T20:31:57.272Z,7.20
2023-10-10T20:34:25.639Z,7.21
2023-10-10T20:36:54.016Z,7.18
2023-10-10T20:39:23.465Z,7.19
2023-10-10T20:41:51.885Z,7.22
2023-10-10T20:44:21.824Z,7.19
2023-10-10T20:46:50.578Z,7.17
2023-10-10T20:49:20.367Z,7.14
2023-10-10T20:51:55.879Z,7.13
2023-10-10T20:54:24.373Z,7.05
2023-10-10T20:56:53.313Z,7.07
2023-10-10T20:59:22.765Z,7.06
2023-10-10T21:01:51.049Z,7.06
2023-10-10T21:04:20.900Z,7.08
2023-10-10T21:06:52.163Z,7.09
2023-10-10T21:09:21.377Z,7.10
2023-10-10T21:11:49.995Z,7.12
2023-10-10T21:14:18.428Z,7.10
2023-10-10T21:16:47.928Z,7.09
2023-10-10T21:19:16.496Z,7.07
2023-10-10T21:21:46.289Z,7.05
2023-10-10T21:24:15.191Z,7.07
2023-10-10T21:26:43.527Z,7.09
2023-10-10T21:29:11.867Z,7.12
2023-10-10T21:31:42.622Z,7.07
2023-10-10T21:34:11.720Z,7.07
2023-10-10T21:36:43.241Z,7.07
2023-10-10T21:39:15.813Z,7.01
2023-10-10T21:41:44.506Z,7.00
2023-10-10T21:44:13.175Z,7.00
2023-10-10T21:46:42.055Z,7.02
2023-10-10T21:49:15.527Z,7.03
2023-10-10T21:51:44.661Z,7.03
2023-10-10T21:54:14.382Z,7.03
2023-10-10T21:56:43.607Z,7.01
2023-10-10T21:59:12.053Z,7.02
2023-10-10T22:01:40.372Z,7.01
2023-10-10T22:04:08.803Z,7.00
2023-10-10T22:06:37.197Z,6.95
2023-10-10T22:09:07.743Z,6.97
2023-10-10T22:11:37.524Z,6.97
2023-10-10T22:14:06.510Z,6.95
2023-10-10T22:16:34.822Z,6.94
2023-10-10T22:19:03.227Z,6.95
2023-10-10T22:21:31.910Z,6.92
2023-10-10T22:24:00.461Z,6.90
2023-10-10T22:26:28.843Z,6.93
2023-10-10T22:28:58.464Z,6.87
2023-10-10T22:31:26.769Z,6.86
2023-10-10T22:33:55.718Z,6.87
2023-10-10T22:36:26.270Z,6.88
2023-10-10T22:38:54.787Z,6.89
2023-10-10T22:41:23.139Z,6.85
2023-10-10T22:43:51.357Z,6.83
2023-10-10T22:46:21.275Z,6.83
2023-10-10T22:48:51.021Z,6.85
2023-10-10T22:51:19.337Z,6.87
2023-10-10T22:53:47.861Z,6.86
2023-10-10T22:56:19.183Z,6.92
2023-10-10T22:58:48.097Z,6.97
2023-10-10T23:01:16.996Z,6.98
2023-10-10T23:03:47.838Z,7.01
2023-10-10T23:06:16.440Z,7.05
2023-10-10T23:08:44.820Z,7.05
2023-10-10T23:11:14.751Z,7.04
2023-10-10T23:13:43.352Z,7.07
2023-10-10T23:16:16.873Z,7.08
2023-10-10T23:18:47.360Z,7.07
2023-10-10T23:21:20.902Z,7.06
2023-10-10T23:23:50.020Z,7.08
2023-10-10T23:26:20.710Z,7.08
2023-10-10T23:28:52.681Z,7.12
2023-10-10T23:31:21.177Z,7.10
2023-10-10T23:33:50.897Z,7.10
2023-10-10T23:36:20.097Z,7.11
2023-10-10T23:38:50.323Z,7.14
2023-10-10T23:41:20.529Z,7.11
2023-10-10T23:43:48.863Z,7.10
2023-10-10T23:46:23.333Z,7.10
2023-10-10T23:48:56.002Z,7.10
2023-10-10T23:51:24.497Z,7.05
2023-10-10T23:53:52.734Z,7.06
2023-10-10T23:56:20.985Z,7.00
2023-10-10T23:58:53.106Z,7.05
